Terminal Aerodrome Forecast
Issued by NWS

Current Version | Previous Version | Graphics & Text | Print | Product List | Glossary On
Versions: 1 2 3 4 5 6 7 8 9 10 11 12 13 14 15
000
FTUS41 KPBZ 262327
TAFHLG
TAF
KHLG 262327Z 2700/2724 27007KT P6SM BKN050
     FM270100 28007KT P6SM SCT250
     FM270600 21005KT P6SM SKC
     FM271600 23010G18KT P6SM SKC=

USA.gov is the U.S. government's official web portal to all federal, state and local government web resources and services.